This is the latest recevied weather packets stored in our database for station/object W4SMH. If no packets are shown the sender has not sent any weather packets the latest 10 day(s).
| Time | Temp. | Humidity | Pressure | Rain* | Wind** | Luminosity | Snow |
|---|---|---|---|---|---|---|---|
| 1777404760 | 16.67° C | 62% | 1011.8 hPa | 0 mm | - | 881 W/m² | - |
| 1777404733 | 10.56° C | 84% | 1017.9 hPa | 0 mm | - | 564 W/m² | - |
| 1777404520 | 16.67° C | 63% | 1011.6 hPa | 0 mm | - | 881 W/m² | - |
| 1777403837 | 16.67° C | 62% | 1011.9 hPa | 0 mm | - | 930 W/m² | - |
| 1777403804 | 16.67° C | 62% | 1011.8 hPa | 0 mm | - | 935 W/m² | - |
| 1777403511 | 16.11° C | 62% | 1012.3 hPa | 0 mm | - | 1025 W/m² | - |
| 1777402641 | 16.67° C | 64% | 1012 hPa | 0 mm | - | 939 W/m² | - |
| 1777402518 | 16.67° C | 64% | 1012 hPa | 0 mm | - | 998 W/m² | - |
| 1777402440 | 16.11° C | 67% | 1011.9 hPa | 0 mm | - | 1014 W/m² | - |
| 1777401483 | 16.11° C | 66% | 1011.9 hPa | 0 mm | - | 218 W/m² | - |
| 1777401377 | 16.11° C | 65% | 1012.1 hPa | 0 mm | - | 218 W/m² | - |
| 1777401138 | 16.11° C | 66% | 1012.2 hPa | 0 mm | - | 1056 W/m² | - |
| 1777400919 | 16.11° C | 65% | 1012.2 hPa | 0 mm | - | 1007 W/m² | - |
| 1777400665 | 15.56° C | 64% | 1012.2 hPa | 0 mm | - | 1037 W/m² | - |
| 1777400607 | 16.11° C | 65% | 1012.4 hPa | 0 mm | - | 1118 W/m² | - |
| 1777400376 | 15.56° C | 65% | 1012.2 hPa | 0 mm | - | 1118 W/m² | - |
| 1777400147 | 15.56° C | 66% | 1012.2 hPa | 0 mm | - | 1093 W/m² | - |
| 1777399562 | 15.56° C | 67% | 1012.1 hPa | 0 mm | - | 1049 W/m² | - |
| 1777399528 | 15.56° C | 68% | 1012.1 hPa | 0 mm | - | 1049 W/m² | - |
| 1777399460 | 15.56° C | 68% | 1012.1 hPa | 0 mm | - | 1049 W/m² | - |
| 1777398485 | 8.89° C | 93% | 1018 hPa | 0 mm | - | 285 W/m² | - |
| 1777397816 | 15.56° C | 66% | 1011.6 hPa | 0 mm | - | 383 W/m² | - |
| 1777397781 | 15.56° C | 67% | 1011.5 hPa | 0 mm | - | 1271 W/m² | - |
| 1777397645 | 15.56° C | 66% | 1011.6 hPa | 0 mm | - | 1352 W/m² | - |
| 1777397167 | 15° C | 68% | 1011.4 hPa | 0 mm | - | 1197 W/m² | - |
* Rain latest hour (hover to see other rain measurements)
** Current wind speed in m/s (hover to see current wind gust speed)